sensor_id;sensor_type;location;lat;lon;timestamp;P1;durP1;ratioP1;P2;durP2;ratioP2
67685;SDS011;54469;52.090;4.312;2023-06-10T00:00:03;26.1;;;10.9;;
67685;SDS011;54469;52.090;4.312;2023-06-10T00:05:03;22.3;;;10.6;;
67685;SDS011;54469;52.090;4.312;2023-06-10T00:10:02;22.3;;;10.6;;
67685;SDS011;54469;52.090;4.312;2023-06-10T00:15:03;21.9;;;11.7;;
67685;SDS011;54469;52.090;4.312;2023-06-10T00:20:03;23.6;;;13.3;;
67685;SDS011;54469;52.090;4.312;2023-06-10T00:25:03;27;;;11.3;;
67685;SDS011;54469;52.090;4.312;2023-06-10T00:30:02;18.7;;;9.800000000000002;;
67685;SDS011;54469;52.090;4.312;2023-06-10T00:35:02;14.4;;;7.9;;
67685;SDS011;54469;52.090;4.312;2023-06-10T00:40:03;14.4;;;7.9;;
67685;SDS011;54469;52.090;4.312;2023-06-10T00:45:02;15.1;;;6.7;;
67685;SDS011;54469;52.090;4.312;2023-06-10T00:50:02;15.1;;;6.7;;
67685;SDS011;54469;52.090;4.312;2023-06-10T00:55:03;12.6;;;6.1;;
67685;SDS011;54469;52.090;4.312;2023-06-10T01:00:03;12.6;;;6.1;;
67685;SDS011;54469;52.090;4.312;2023-06-10T01:05:03;12.6;;;6.1;;
67685;SDS011;54469;52.090;4.312;2023-06-10T01:10:04;9.699999999999998;;;4.9;;
67685;SDS011;54469;52.090;4.312;2023-06-10T01:15:03;12.1;;;5.1;;
67685;SDS011;54469;52.090;4.312;2023-06-10T01:20:02;12.1;;;5.1;;
67685;SDS011;54469;52.090;4.312;2023-06-10T01:25:03;12.1;;;5.1;;
67685;SDS011;54469;52.090;4.312;2023-06-10T01:30:04;12.1;;;5.1;;
67685;SDS011;54469;52.090;4.312;2023-06-10T01:35:03;12.1;;;5.1;;
67685;SDS011;54469;52.090;4.312;2023-06-10T01:40:03;14.6;;;5.7;;
67685;SDS011;54469;52.090;4.312;2023-06-10T01:45:03;9.6;;;5.3;;
67685;SDS011;54469;52.090;4.312;2023-06-10T01:50:03;9.6;;;5.3;;
67685;SDS011;54469;52.090;4.312;2023-06-10T01:55:03;9.6;;;5.3;;
67685;SDS011;54469;52.090;4.312;2023-06-10T02:00:02;13.4;;;5.1;;
67685;SDS011;54469;52.090;4.312;2023-06-10T02:05:03;9.699999999999998;;;4.8;;
67685;SDS011;54469;52.090;4.312;2023-06-10T02:10:03;9.699999999999998;;;4.8;;
67685;SDS011;54469;52.090;4.312;2023-06-10T02:15:02;7.7;;;4.4;;
67685;SDS011;54469;52.090;4.312;2023-06-10T02:20:03;7.7;;;4.4;;
67685;SDS011;54469;52.090;4.312;2023-06-10T02:25:03;7.7;;;4.4;;
67685;SDS011;54469;52.090;4.312;2023-06-10T02:30:03;7.7;;;4.4;;
67685;SDS011;54469;52.090;4.312;2023-06-10T02:35:02;7.7;;;4.4;;
67685;SDS011;54469;52.090;4.312;2023-06-10T02:40:03;7.7;;;4.4;;
67685;SDS011;54469;52.090;4.312;2023-06-10T02:45:03;7.7;;;4.4;;
67685;SDS011;54469;52.090;4.312;2023-06-10T02:50:03;7.7;;;4.4;;
67685;SDS011;54469;52.090;4.312;2023-06-10T02:55:03;7.7;;;4.4;;
67685;SDS011;54469;52.090;4.312;2023-06-10T03:00:03;7.7;;;4.4;;
67685;SDS011;54469;52.090;4.312;2023-06-10T03:05:02;10.7;;;4.2;;
67685;SDS011;54469;52.090;4.312;2023-06-10T03:10:03;10.7;;;4.2;;
67685;SDS011;54469;52.090;4.312;2023-06-10T03:15:03;10.7;;;4.2;;
67685;SDS011;54469;52.090;4.312;2023-06-10T03:20:03;10.7;;;4.2;;
67685;SDS011;54469;52.090;4.312;2023-06-10T03:25:03;7;;;3.9;;
67685;SDS011;54469;52.090;4.312;2023-06-10T03:30:02;7;;;3.9;;
67685;SDS011;54469;52.090;4.312;2023-06-10T03:35:02;7;;;3.9;;
67685;SDS011;54469;52.090;4.312;2023-06-10T03:40:02;10.4;;;3.8;;
67685;SDS011;54469;52.090;4.312;2023-06-10T03:45:03;8.300000000000002;;;3.9;;
67685;SDS011;54469;52.090;4.312;2023-06-10T03:50:03;8.300000000000002;;;3.9;;
67685;SDS011;54469;52.090;4.312;2023-06-10T03:55:03;8.300000000000002;;;3.9;;
67685;SDS011;54469;52.090;4.312;2023-06-10T04:00:03;8.300000000000002;;;3.9;;
67685;SDS011;54469;52.090;4.312;2023-06-10T04:05:03;8.300000000000002;;;3.9;;
67685;SDS011;54469;52.090;4.312;2023-06-10T04:10:02;8.300000000000002;;;3.9;;
67685;SDS011;54469;52.090;4.312;2023-06-10T04:15:02;8.300000000000002;;;3.9;;
67685;SDS011;54469;52.090;4.312;2023-06-10T04:20:02;8.300000000000002;;;3.9;;
67685;SDS011;54469;52.090;4.312;2023-06-10T04:25:02;8.300000000000002;;;3.9;;
67685;SDS011;54469;52.090;4.312;2023-06-10T04:30:03;8.300000000000002;;;3.9;;
67685;SDS011;54469;52.090;4.312;2023-06-10T04:35:02;8.300000000000002;;;3.9;;
67685;SDS011;54469;52.090;4.312;2023-06-10T04:40:03;8.300000000000002;;;3.9;;
67685;SDS011;54469;52.090;4.312;2023-06-10T04:45:03;8.300000000000002;;;3.9;;
67685;SDS011;54469;52.090;4.312;2023-06-10T04:50:02;8.300000000000002;;;3.9;;
67685;SDS011;54469;52.090;4.312;2023-06-10T04:55:03;8.300000000000002;;;3.9;;
67685;SDS011;54469;52.090;4.312;2023-06-10T05:00:03;10.7;;;3.9;;
67685;SDS011;54469;52.090;4.312;2023-06-10T05:05:02;10.7;;;3.9;;
67685;SDS011;54469;52.090;4.312;2023-06-10T05:10:03;5.7;;;4;;
67685;SDS011;54469;52.090;4.312;2023-06-10T05:15:03;8.199999999999998;;;3.8;;
67685;SDS011;54469;52.090;4.312;2023-06-10T05:20:03;8.199999999999998;;;3.8;;
67685;SDS011;54469;52.090;4.312;2023-06-10T05:25:03;8.199999999999998;;;3.8;;
67685;SDS011;54469;52.090;4.312;2023-06-10T05:30:02;8.199999999999998;;;3.8;;
67685;SDS011;54469;52.090;4.312;2023-06-10T05:35:03;8.199999999999998;;;3.8;;
67685;SDS011;54469;52.090;4.312;2023-06-10T05:40:03;6.1;;;4;;
67685;SDS011;54469;52.090;4.312;2023-06-10T05:45:03;6.1;;;4;;
67685;SDS011;54469;52.090;4.312;2023-06-10T05:50:03;6.1;;;4;;
67685;SDS011;54469;52.090;4.312;2023-06-10T05:55:03;6.1;;;4;;
67685;SDS011;54469;52.090;4.312;2023-06-10T06:00:03;9.699999999999998;;;4.4;;
67685;SDS011;54469;52.090;4.312;2023-06-10T06:05:02;6.4;;;3.9;;
67685;SDS011;54469;52.090;4.312;2023-06-10T06:10:02;9.5;;;3.9;;
67685;SDS011;54469;52.090;4.312;2023-06-10T06:15:03;9.5;;;3.9;;
67685;SDS011;54469;52.090;4.312;2023-06-10T06:20:03;9.5;;;3.9;;
67685;SDS011;54469;52.090;4.312;2023-06-10T06:25:02;9.5;;;3.9;;
67685;SDS011;54469;52.090;4.312;2023-06-10T06:30:02;9.5;;;3.9;;
67685;SDS011;54469;52.090;4.312;2023-06-10T06:35:02;9.5;;;3.9;;
67685;SDS011;54469;52.090;4.312;2023-06-10T06:40:02;9.5;;;3.9;;
67685;SDS011;54469;52.090;4.312;2023-06-10T06:45:03;6.5;;;4.1;;
67685;SDS011;54469;52.090;4.312;2023-06-10T06:50:03;6.5;;;4.1;;
67685;SDS011;54469;52.090;4.312;2023-06-10T06:55:03;8.800000000000002;;;4.2;;
67685;SDS011;54469;52.090;4.312;2023-06-10T07:00:02;11.1;;;4.4;;
67685;SDS011;54469;52.090;4.312;2023-06-10T07:05:03;8.6;;;4.1;;
67685;SDS011;54469;52.090;4.312;2023-06-10T07:10:03;8.6;;;4.1;;
67685;SDS011;54469;52.090;4.312;2023-06-10T07:15:03;8.6;;;4.1;;
67685;SDS011;54469;52.090;4.312;2023-06-10T07:20:03;8.6;;;4.1;;
67685;SDS011;54469;52.090;4.312;2023-06-10T07:25:02;6.5;;;4.1;;
67685;SDS011;54469;52.090;4.312;2023-06-10T07:30:02;6.5;;;4.1;;
67685;SDS011;54469;52.090;4.312;2023-06-10T07:35:03;8.5;;;4.1;;
67685;SDS011;54469;52.090;4.312;2023-06-10T07:40:03;8.5;;;4.1;;
67685;SDS011;54469;52.090;4.312;2023-06-10T07:45:02;8.5;;;4.1;;
67685;SDS011;54469;52.090;4.312;2023-06-10T07:50:02;5.3;;;4;;
67685;SDS011;54469;52.090;4.312;2023-06-10T07:55:04;9.699999999999998;;;4.5;;
67685;SDS011;54469;52.090;4.312;2023-06-10T08:00:03;7.2;;;4.4;;
67685;SDS011;54469;52.090;4.312;2023-06-10T08:05:03;12;;;4.5;;
67685;SDS011;54469;52.090;4.312;2023-06-10T08:10:02;6.9;;;4.7;;
67685;SDS011;54469;52.090;4.312;2023-06-10T08:15:02;6.9;;;4.7;;
67685;SDS011;54469;52.090;4.312;2023-06-10T08:20:02;10.6;;;4.7;;
67685;SDS011;54469;52.090;4.312;2023-06-10T08:25:02;8.300000000000002;;;4.8;;
67685;SDS011;54469;52.090;4.312;2023-06-10T08:30:03;8.300000000000002;;;4.8;;
67685;SDS011;54469;52.090;4.312;2023-06-10T08:35:03;8.300000000000002;;;4.8;;
67685;SDS011;54469;52.090;4.312;2023-06-10T08:40:02;8.300000000000002;;;4.8;;
67685;SDS011;54469;52.090;4.312;2023-06-10T08:45:03;8.300000000000002;;;4.8;;
67685;SDS011;54469;52.090;4.312;2023-06-10T08:50:03;8.300000000000002;;;4.8;;
67685;SDS011;54469;52.090;4.312;2023-06-10T08:55:03;8.300000000000002;;;4.8;;
67685;SDS011;54469;52.090;4.312;2023-06-10T09:00:02;8.300000000000002;;;4.8;;
67685;SDS011;54469;52.090;4.312;2023-06-10T09:05:03;8.300000000000002;;;4.8;;
67685;SDS011;54469;52.090;4.312;2023-06-10T09:10:03;8.300000000000002;;;4.8;;
67685;SDS011;54469;52.090;4.312;2023-06-10T09:15:03;8.300000000000002;;;4.8;;
67685;SDS011;54469;52.090;4.312;2023-06-10T09:20:03;8.300000000000002;;;4.8;;
67685;SDS011;54469;52.090;4.312;2023-06-10T09:25:03;8.300000000000002;;;4.8;;
67685;SDS011;54469;52.090;4.312;2023-06-10T09:35:03;8.300000000000002;;;4.8;;
67685;SDS011;54469;52.090;4.312;2023-06-10T09:40:04;5.1;;;4.4;;
67685;SDS011;54469;52.090;4.312;2023-06-10T09:45:03;5.1;;;4.4;;
67685;SDS011;54469;52.090;4.312;2023-06-10T09:50:03;5.1;;;4.4;;
67685;SDS011;54469;52.090;4.312;2023-06-10T09:55:03;8.1;;;5;;
67685;SDS011;54469;52.090;4.312;2023-06-10T10:00:04;8.1;;;5;;
67685;SDS011;54469;52.090;4.312;2023-06-10T10:05:02;4.53333;;;3.73333;;
67685;SDS011;54469;52.090;4.312;2023-06-10T10:10:02;4.53333;;;3.73333;;
67685;SDS011;54469;52.090;4.312;2023-06-10T10:15:04;4.53333;;;3.73333;;
67685;SDS011;54469;52.090;4.312;2023-06-10T10:20:03;6.9;;;5.3;;
67685;SDS011;54469;52.090;4.312;2023-06-10T10:25:05;6.9;;;5.3;;
67685;SDS011;54469;52.090;4.312;2023-06-10T10:30:02;6.9;;;5.3;;
67685;SDS011;54469;52.090;4.312;2023-06-10T10:35:05;6.9;;;5.3;;
67685;SDS011;54469;52.090;4.312;2023-06-10T10:40:03;6.9;;;5.3;;
67685;SDS011;54469;52.090;4.312;2023-06-10T10:45:03;6.9;;;5.3;;
67685;SDS011;54469;52.090;4.312;2023-06-10T10:50:03;6.9;;;5.3;;
67685;SDS011;54469;52.090;4.312;2023-06-10T10:55:03;10;;;4.9;;
67685;SDS011;54469;52.090;4.312;2023-06-10T11:00:03;10;;;4.9;;
67685;SDS011;54469;52.090;4.312;2023-06-10T11:05:08;7.4;;;4.5;;
67685;SDS011;54469;52.090;4.312;2023-06-10T11:10:02;7.4;;;4.5;;
67685;SDS011;54469;52.090;4.312;2023-06-10T11:15:03;7.4;;;4.5;;
67685;SDS011;54469;52.090;4.312;2023-06-10T11:20:03;7.4;;;4.5;;
67685;SDS011;54469;52.090;4.312;2023-06-10T11:25:03;7.4;;;4.5;;
67685;SDS011;54469;52.090;4.312;2023-06-10T11:30:18;7.4;;;4.5;;
67685;SDS011;54469;52.090;4.312;2023-06-10T11:35:02;7.4;;;4.5;;
67685;SDS011;54469;52.090;4.312;2023-06-10T11:40:03;7.4;;;4.5;;
67685;SDS011;54469;52.090;4.312;2023-06-10T11:45:03;7.4;;;4.5;;
67685;SDS011;54469;52.090;4.312;2023-06-10T11:50:03;7.4;;;4.5;;
67685;SDS011;54469;52.090;4.312;2023-06-10T11:55:03;7.4;;;4.5;;
67685;SDS011;54469;52.090;4.312;2023-06-10T12:00:04;4.9;;;4.2;;
67685;SDS011;54469;52.090;4.312;2023-06-10T12:05:09;7.1;;;4.6;;
67685;SDS011;54469;52.090;4.312;2023-06-10T12:10:03;7.1;;;4.6;;
67685;SDS011;54469;52.090;4.312;2023-06-10T12:15:03;7.1;;;4.6;;
67685;SDS011;54469;52.090;4.312;2023-06-10T12:20:05;7.1;;;4.6;;
67685;SDS011;54469;52.090;4.312;2023-06-10T12:25:03;7.1;;;4.6;;
67685;SDS011;54469;52.090;4.312;2023-06-10T12:30:04;7.1;;;4.6;;
67685;SDS011;54469;52.090;4.312;2023-06-10T12:35:03;7.1;;;4.6;;
67685;SDS011;54469;52.090;4.312;2023-06-10T12:40:03;7.1;;;4.6;;
67685;SDS011;54469;52.090;4.312;2023-06-10T12:45:03;7.1;;;4.6;;
67685;SDS011;54469;52.090;4.312;2023-06-10T12:50:02;7.1;;;4.6;;
67685;SDS011;54469;52.090;4.312;2023-06-10T12:55:03;7.1;;;4.6;;
67685;SDS011;54469;52.090;4.312;2023-06-10T13:00:03;7.1;;;4.6;;
67685;SDS011;54469;52.090;4.312;2023-06-10T13:05:07;7.1;;;4.6;;
67685;SDS011;54469;52.090;4.312;2023-06-10T13:10:03;7.1;;;4.6;;
67685;SDS011;54469;52.090;4.312;2023-06-10T13:15:03;7.1;;;4.6;;
67685;SDS011;54469;52.090;4.312;2023-06-10T13:20:02;7.1;;;4.6;;
67685;SDS011;54469;52.090;4.312;2023-06-10T13:25:02;7.1;;;4.6;;
67685;SDS011;54469;52.090;4.312;2023-06-10T13:30:03;7.1;;;4.6;;
67685;SDS011;54469;52.090;4.312;2023-06-10T13:35:03;7.1;;;4.6;;
67685;SDS011;54469;52.090;4.312;2023-06-10T13:40:03;7.1;;;4.6;;
67685;SDS011;54469;52.090;4.312;2023-06-10T13:45:02;7.1;;;4.6;;
67685;SDS011;54469;52.090;4.312;2023-06-10T13:50:02;7.1;;;4.6;;
67685;SDS011;54469;52.090;4.312;2023-06-10T13:55:03;7.1;;;4.6;;
67685;SDS011;54469;52.090;4.312;2023-06-10T14:00:03;7.1;;;4.6;;
67685;SDS011;54469;52.090;4.312;2023-06-10T14:05:03;7.1;;;4.6;;
67685;SDS011;54469;52.090;4.312;2023-06-10T14:10:03;7.1;;;4.6;;
67685;SDS011;54469;52.090;4.312;2023-06-10T14:15:03;7.1;;;4.6;;
67685;SDS011;54469;52.090;4.312;2023-06-10T14:20:03;10.3;;;3.8;;
67685;SDS011;54469;52.090;4.312;2023-06-10T14:25:03;7.5;;;3.6;;
67685;SDS011;54469;52.090;4.312;2023-06-10T14:30:08;7.5;;;3.6;;
67685;SDS011;54469;52.090;4.312;2023-06-10T14:35:03;4.3;;;3.7;;
67685;SDS011;54469;52.090;4.312;2023-06-10T14:40:03;4.3;;;3.7;;
67685;SDS011;54469;52.090;4.312;2023-06-10T14:45:03;9.199999999999998;;;3.9;;
67685;SDS011;54469;52.090;4.312;2023-06-10T14:50:02;6.5;;;3.8;;
67685;SDS011;54469;52.090;4.312;2023-06-10T14:55:03;6.5;;;3.8;;
67685;SDS011;54469;52.090;4.312;2023-06-10T15:00:03;6.5;;;3.8;;
67685;SDS011;54469;52.090;4.312;2023-06-10T15:05:02;6.5;;;3.8;;
67685;SDS011;54469;52.090;4.312;2023-06-10T15:10:02;6.5;;;3.8;;
67685;SDS011;54469;52.090;4.312;2023-06-10T15:15:02;6.5;;;3.8;;
67685;SDS011;54469;52.090;4.312;2023-06-10T15:20:03;6.5;;;3.8;;
67685;SDS011;54469;52.090;4.312;2023-06-10T15:25:03;6.5;;;3.8;;
67685;SDS011;54469;52.090;4.312;2023-06-10T15:30:03;6.5;;;3.8;;
67685;SDS011;54469;52.090;4.312;2023-06-10T15:35:03;8.800000000000002;;;3.5;;
67685;SDS011;54469;52.090;4.312;2023-06-10T15:40:03;4.6;;;3.2;;
67685;SDS011;54469;52.090;4.312;2023-06-10T15:45:03;8.800000000000002;;;4;;
67685;SDS011;54469;52.090;4.312;2023-06-10T15:50:03;6.5;;;3.8;;
67685;SDS011;54469;52.090;4.312;2023-06-10T15:55:03;6.5;;;3.8;;
67685;SDS011;54469;52.090;4.312;2023-06-10T16:00:03;6.5;;;3.8;;
67685;SDS011;54469;52.090;4.312;2023-06-10T16:05:03;6.5;;;3.8;;
67685;SDS011;54469;52.090;4.312;2023-06-10T16:10:03;6.5;;;3.8;;
67685;SDS011;54469;52.090;4.312;2023-06-10T16:15:03;6.5;;;3.8;;
67685;SDS011;54469;52.090;4.312;2023-06-10T16:20:03;6.5;;;3.8;;
67685;SDS011;54469;52.090;4.312;2023-06-10T16:25:03;6.5;;;3.8;;
67685;SDS011;54469;52.090;4.312;2023-06-10T16:30:03;6.5;;;3.8;;
67685;SDS011;54469;52.090;4.312;2023-06-10T16:35:03;6.5;;;3.8;;
67685;SDS011;54469;52.090;4.312;2023-06-10T16:40:03;6.5;;;3.8;;
67685;SDS011;54469;52.090;4.312;2023-06-10T16:45:02;8.5;;;3.7;;
67685;SDS011;54469;52.090;4.312;2023-06-10T16:50:02;5.4;;;3.4;;
67685;SDS011;54469;52.090;4.312;2023-06-10T16:55:03;9.199999999999998;;;3.9;;
67685;SDS011;54469;52.090;4.312;2023-06-10T17:00:03;6.1;;;3.6;;
67685;SDS011;54469;52.090;4.312;2023-06-10T17:05:02;9.1;;;3.6;;
67685;SDS011;54469;52.090;4.312;2023-06-10T17:10:03;9.1;;;3.6;;
67685;SDS011;54469;52.090;4.312;2023-06-10T17:15:03;9.1;;;3.6;;
67685;SDS011;54469;52.090;4.312;2023-06-10T17:20:03;7.1;;;3.5;;
67685;SDS011;54469;52.090;4.312;2023-06-10T17:25:03;9.800000000000002;;;3.2;;
67685;SDS011;54469;52.090;4.312;2023-06-10T17:30:03;9.800000000000002;;;3.2;;
67685;SDS011;54469;52.090;4.312;2023-06-10T17:35:03;5.4;;;3.2;;
67685;SDS011;54469;52.090;4.312;2023-06-10T17:40:03;8;;;3;;
67685;SDS011;54469;52.090;4.312;2023-06-10T17:45:03;8;;;3;;
67685;SDS011;54469;52.090;4.312;2023-06-10T17:50:03;4.8;;;3.2;;
67685;SDS011;54469;52.090;4.312;2023-06-10T17:55:03;4.8;;;3.2;;
67685;SDS011;54469;52.090;4.312;2023-06-10T18:00:03;4.8;;;3.2;;
67685;SDS011;54469;52.090;4.312;2023-06-10T18:05:03;4.8;;;3.2;;
67685;SDS011;54469;52.090;4.312;2023-06-10T18:10:03;8.9;;;3.1;;
67685;SDS011;54469;52.090;4.312;2023-06-10T18:15:03;5.6;;;3.1;;
67685;SDS011;54469;52.090;4.312;2023-06-10T18:20:03;5.6;;;3.1;;
67685;SDS011;54469;52.090;4.312;2023-06-10T18:25:03;5.6;;;3.1;;
67685;SDS011;54469;52.090;4.312;2023-06-10T18:30:05;5.6;;;3.1;;
67685;SDS011;54469;52.090;4.312;2023-06-10T18:35:03;3.1;;;2.6;;
67685;SDS011;54469;52.090;4.312;2023-06-10T18:40:02;3.1;;;2.6;;
67685;SDS011;54469;52.090;4.312;2023-06-10T18:45:02;6;;;2.6;;
67685;SDS011;54469;52.090;4.312;2023-06-10T18:50:02;6;;;2.6;;
67685;SDS011;54469;52.090;4.312;2023-06-10T18:55:03;6;;;2.6;;
67685;SDS011;54469;52.090;4.312;2023-06-10T19:00:04;6;;;2.6;;
67685;SDS011;54469;52.090;4.312;2023-06-10T19:05:03;6;;;2.6;;
67685;SDS011;54469;52.090;4.312;2023-06-10T19:10:02;6;;;2.6;;
67685;SDS011;54469;52.090;4.312;2023-06-10T19:15:02;6;;;2.6;;
67685;SDS011;54469;52.090;4.312;2023-06-10T19:20:02;6;;;2.6;;
67685;SDS011;54469;52.090;4.312;2023-06-10T19:25:03;6;;;2.6;;
67685;SDS011;54469;52.090;4.312;2023-06-10T19:30:03;6;;;2.6;;
67685;SDS011;54469;52.090;4.312;2023-06-10T19:35:03;8.6;;;4;;
67685;SDS011;54469;52.090;4.312;2023-06-10T19:40:03;5.4;;;2.7;;
67685;SDS011;54469;52.090;4.312;2023-06-10T19:45:02;5.4;;;2.7;;
67685;SDS011;54469;52.090;4.312;2023-06-10T19:50:02;5.4;;;2.7;;
67685;SDS011;54469;52.090;4.312;2023-06-10T19:55:03;5.4;;;2.7;;
67685;SDS011;54469;52.090;4.312;2023-06-10T20:00:04;5.4;;;2.7;;
67685;SDS011;54469;52.090;4.312;2023-06-10T20:05:02;5.4;;;2.7;;
67685;SDS011;54469;52.090;4.312;2023-06-10T20:10:03;5.4;;;2.7;;
67685;SDS011;54469;52.090;4.312;2023-06-10T20:15:03;5.4;;;2.7;;
67685;SDS011;54469;52.090;4.312;2023-06-10T20:20:03;5.4;;;2.7;;
67685;SDS011;54469;52.090;4.312;2023-06-10T20:25:02;5.4;;;2.7;;
67685;SDS011;54469;52.090;4.312;2023-06-10T20:30:03;5.4;;;2.7;;
67685;SDS011;54469;52.090;4.312;2023-06-10T20:35:03;5.4;;;2.7;;
67685;SDS011;54469;52.090;4.312;2023-06-10T20:40:03;5.4;;;2.7;;
67685;SDS011;54469;52.090;4.312;2023-06-10T20:45:02;8;;;2.4;;
67685;SDS011;54469;52.090;4.312;2023-06-10T20:50:02;8;;;2.4;;
67685;SDS011;54469;52.090;4.312;2023-06-10T20:55:03;5.2;;;2.5;;
67685;SDS011;54469;52.090;4.312;2023-06-10T21:00:03;5.2;;;2.5;;
67685;SDS011;54469;52.090;4.312;2023-06-10T21:05:02;5.2;;;2.5;;
67685;SDS011;54469;52.090;4.312;2023-06-10T21:10:02;5.2;;;2.5;;
67685;SDS011;54469;52.090;4.312;2023-06-10T21:15:03;5.2;;;2.5;;
67685;SDS011;54469;52.090;4.312;2023-06-10T21:20:03;5.2;;;2.5;;
67685;SDS011;54469;52.090;4.312;2023-06-10T21:25:03;5.2;;;2.5;;
67685;SDS011;54469;52.090;4.312;2023-06-10T21:30:03;5.2;;;2.5;;
67685;SDS011;54469;52.090;4.312;2023-06-10T21:35:02;5.2;;;2.5;;
67685;SDS011;54469;52.090;4.312;2023-06-10T21:40:02;5.2;;;2.5;;
67685;SDS011;54469;52.090;4.312;2023-06-10T21:45:03;5.2;;;2.5;;
67685;SDS011;54469;52.090;4.312;2023-06-10T21:50:03;5.2;;;2.5;;
67685;SDS011;54469;52.090;4.312;2023-06-10T21:55:03;9.6;;;2.9;;
67685;SDS011;54469;52.090;4.312;2023-06-10T22:00:03;3.7;;;2.7;;
67685;SDS011;54469;52.090;4.312;2023-06-10T22:05:02;3.7;;;2.7;;
67685;SDS011;54469;52.090;4.312;2023-06-10T22:10:03;3.7;;;2.7;;
67685;SDS011;54469;52.090;4.312;2023-06-10T22:15:03;3.7;;;2.7;;
67685;SDS011;54469;52.090;4.312;2023-06-10T22:20:03;3.7;;;2.7;;
67685;SDS011;54469;52.090;4.312;2023-06-10T22:25:03;7.2;;;2.8;;
67685;SDS011;54469;52.090;4.312;2023-06-10T22:30:03;7.2;;;2.8;;
67685;SDS011;54469;52.090;4.312;2023-06-10T22:35:02;7.2;;;2.8;;
67685;SDS011;54469;52.090;4.312;2023-06-10T22:40:02;3.4;;;2.6;;
67685;SDS011;54469;52.090;4.312;2023-06-10T22:45:03;5.8;;;2.9;;
67685;SDS011;54469;52.090;4.312;2023-06-10T22:50:03;9;;;3;;
67685;SDS011;54469;52.090;4.312;2023-06-10T22:55:02;4.7;;;2.7;;
67685;SDS011;54469;52.090;4.312;2023-06-10T23:00:02;4.7;;;2.7;;
67685;SDS011;54469;52.090;4.312;2023-06-10T23:05:02;4.7;;;2.7;;
67685;SDS011;54469;52.090;4.312;2023-06-10T23:10:02;4.7;;;2.7;;
67685;SDS011;54469;52.090;4.312;2023-06-10T23:15:03;4.7;;;2.7;;
67685;SDS011;54469;52.090;4.312;2023-06-10T23:20:03;4.7;;;2.7;;
67685;SDS011;54469;52.090;4.312;2023-06-10T23:25:03;4.7;;;2.7;;
67685;SDS011;54469;52.090;4.312;2023-06-10T23:30:03;4.7;;;2.7;;
67685;SDS011;54469;52.090;4.312;2023-06-10T23:35:02;4.7;;;2.7;;
67685;SDS011;54469;52.090;4.312;2023-06-10T23:40:04;8.1;;;3.1;;
67685;SDS011;54469;52.090;4.312;2023-06-10T23:45:03;6.1;;;2.9;;
67685;SDS011;54469;52.090;4.312;2023-06-10T23:50:03;6.1;;;2.9;;
67685;SDS011;54469;52.090;4.312;2023-06-10T23:55:02;6.1;;;2.9;;
